sensor_id;sensor_type;location;lat;lon;timestamp;temperature;humidity
2226;DHT22;1119;48.288;8.726;2022-12-07T16:18:28;4.70;99.90
2226;DHT22;1119;48.288;8.726;2022-12-07T16:20:56;4.70;99.90
2226;DHT22;1119;48.288;8.726;2022-12-07T16:23:26;5.00;99.90
2226;DHT22;1119;48.288;8.726;2022-12-07T16:25:54;4.80;99.90
2226;DHT22;1119;48.288;8.726;2022-12-07T16:28:22;4.60;99.90
2226;DHT22;1119;48.288;8.726;2022-12-07T16:31:00;4.60;99.90
2226;DHT22;1119;48.288;8.726;2022-12-07T16:33:44;5.00;99.90
2226;DHT22;1119;48.288;8.726;2022-12-07T16:36:13;4.60;99.90
2226;DHT22;1119;48.288;8.726;2022-12-07T16:38:42;4.60;99.90
2226;DHT22;1119;48.288;8.726;2022-12-07T16:41:10;4.60;99.90
2226;DHT22;1119;48.288;8.726;2022-12-07T16:43:37;4.60;99.90
2226;DHT22;1119;48.288;8.726;2022-12-07T16:46:05;4.60;99.90
2226;DHT22;1119;48.288;8.726;2022-12-07T16:48:35;4.60;99.90
2226;DHT22;1119;48.288;8.726;2022-12-07T16:51:06;4.50;99.90
2226;DHT22;1119;48.288;8.726;2022-12-07T16:53:36;4.40;99.90
2226;DHT22;1119;48.288;8.726;2022-12-07T16:56:09;4.30;99.90
2226;DHT22;1119;48.288;8.726;2022-12-07T16:58:37;4.30;99.90
2226;DHT22;1119;48.288;8.726;2022-12-07T17:01:11;4.20;99.90
2226;DHT22;1119;48.288;8.726;2022-12-07T17:03:40;4.10;99.90
2226;DHT22;1119;48.288;8.726;2022-12-07T17:06:14;4.10;99.90
2226;DHT22;1119;48.288;8.726;2022-12-07T17:08:43;4.00;99.90
2226;DHT22;1119;48.288;8.726;2022-12-07T17:11:12;4.00;99.90
2226;DHT22;1119;48.288;8.726;2022-12-07T17:13:40;4.00;99.90
2226;DHT22;1119;48.288;8.726;2022-12-07T17:16:25;3.90;99.90
2226;DHT22;1119;48.288;8.726;2022-12-07T17:18:53;3.90;99.90
2226;DHT22;1119;48.288;8.726;2022-12-07T17:21:22;3.80;99.90
2226;DHT22;1119;48.288;8.726;2022-12-07T17:23:49;3.80;99.90
2226;DHT22;1119;48.288;8.726;2022-12-07T17:26:20;3.70;99.90
2226;DHT22;1119;48.288;8.726;2022-12-07T17:28:48;3.70;99.90
2226;DHT22;1119;48.288;8.726;2022-12-07T17:31:18;3.60;99.90
2226;DHT22;1119;48.288;8.726;2022-12-07T17:33:46;3.60;99.90
2226;DHT22;1119;48.288;8.726;2022-12-07T17:36:15;3.60;99.90
2226;DHT22;1119;48.288;8.726;2022-12-07T17:38:46;3.70;99.90
2226;DHT22;1119;48.288;8.726;2022-12-07T17:41:16;3.60;99.90
2226;DHT22;1119;48.288;8.726;2022-12-07T17:44:06;3.60;99.90
2226;DHT22;1119;48.288;8.726;2022-12-07T17:46:35;3.60;99.90
2226;DHT22;1119;48.288;8.726;2022-12-07T17:49:03;3.60;99.90
2226;DHT22;1119;48.288;8.726;2022-12-07T17:51:31;3.60;99.90
2226;DHT22;1119;48.288;8.726;2022-12-07T17:54:26;3.70;99.90
2226;DHT22;1119;48.288;8.726;2022-12-07T17:56:53;3.70;99.90
2226;DHT22;1119;48.288;8.726;2022-12-07T17:59:20;3.70;99.90
2226;DHT22;1119;48.288;8.726;2022-12-07T18:01:48;3.70;99.90
2226;DHT22;1119;48.288;8.726;2022-12-07T18:04:16;3.80;99.90
2226;DHT22;1119;48.288;8.726;2022-12-07T18:06:43;3.70;99.90
2226;DHT22;1119;48.288;8.726;2022-12-07T18:09:11;3.70;99.90
2226;DHT22;1119;48.288;8.726;2022-12-07T18:11:40;3.60;99.90
2226;DHT22;1119;48.288;8.726;2022-12-07T18:14:07;3.60;99.90
2226;DHT22;1119;48.288;8.726;2022-12-07T18:16:35;3.50;99.90
2226;DHT22;1119;48.288;8.726;2022-12-07T18:19:05;3.40;99.90
2226;DHT22;1119;48.288;8.726;2022-12-07T18:21:33;3.40;99.90
2226;DHT22;1119;48.288;8.726;2022-12-07T18:24:02;3.40;99.90
2226;DHT22;1119;48.288;8.726;2022-12-07T18:26:32;3.30;99.90
2226;DHT22;1119;48.288;8.726;2022-12-07T18:29:03;3.30;99.90
2226;DHT22;1119;48.288;8.726;2022-12-07T18:31:32;3.30;99.90
2226;DHT22;1119;48.288;8.726;2022-12-07T18:34:00;3.30;99.90
2226;DHT22;1119;48.288;8.726;2022-12-07T18:36:29;3.20;99.90
2226;DHT22;1119;48.288;8.726;2022-12-07T18:38:56;3.20;99.90
2226;DHT22;1119;48.288;8.726;2022-12-07T18:41:23;3.10;99.90
2226;DHT22;1119;48.288;8.726;2022-12-07T18:43:51;3.10;99.90
2226;DHT22;1119;48.288;8.726;2022-12-07T18:46:20;3.00;99.90
2226;DHT22;1119;48.288;8.726;2022-12-07T18:48:48;2.90;99.90
2226;DHT22;1119;48.288;8.726;2022-12-07T18:51:17;2.90;99.90
2226;DHT22;1119;48.288;8.726;2022-12-07T18:53:45;2.90;99.90
2226;DHT22;1119;48.288;8.726;2022-12-07T18:56:15;2.90;99.90
2226;DHT22;1119;48.288;8.726;2022-12-07T18:58:47;2.80;99.90
2226;DHT22;1119;48.288;8.726;2022-12-07T19:01:34;2.80;99.90
2226;DHT22;1119;48.288;8.726;2022-12-07T19:04:02;2.80;99.90
2226;DHT22;1119;48.288;8.726;2022-12-07T19:06:30;2.80;99.90
2226;DHT22;1119;48.288;8.726;2022-12-07T19:08:58;2.80;99.90
2226;DHT22;1119;48.288;8.726;2022-12-07T19:11:27;2.80;99.90
2226;DHT22;1119;48.288;8.726;2022-12-07T19:14:17;2.80;99.90
2226;DHT22;1119;48.288;8.726;2022-12-07T19:16:48;2.80;99.90
2226;DHT22;1119;48.288;8.726;2022-12-07T19:19:17;2.80;99.90
2226;DHT22;1119;48.288;8.726;2022-12-07T19:21:47;2.80;99.90
2226;DHT22;1119;48.288;8.726;2022-12-07T19:24:15;2.80;99.90
2226;DHT22;1119;48.288;8.726;2022-12-07T19:26:43;2.80;99.90
2226;DHT22;1119;48.288;8.726;2022-12-07T19:29:10;2.70;99.90
2226;DHT22;1119;48.288;8.726;2022-12-07T19:31:37;2.70;99.90
2226;DHT22;1119;48.288;8.726;2022-12-07T19:34:10;2.70;99.90
2226;DHT22;1119;48.288;8.726;2022-12-07T19:36:38;2.70;99.90
2226;DHT22;1119;48.288;8.726;2022-12-07T19:39:06;2.70;99.90
2226;DHT22;1119;48.288;8.726;2022-12-07T19:41:33;2.70;99.90
2226;DHT22;1119;48.288;8.726;2022-12-07T19:44:02;2.70;99.90
2226;DHT22;1119;48.288;8.726;2022-12-07T19:46:31;2.70;99.90
2226;DHT22;1119;48.288;8.726;2022-12-07T19:48:58;2.70;99.90
2226;DHT22;1119;48.288;8.726;2022-12-07T19:51:29;2.80;99.90
2226;DHT22;1119;48.288;8.726;2022-12-07T19:53:57;2.90;99.90
2226;DHT22;1119;48.288;8.726;2022-12-07T19:56:27;3.00;99.90
2226;DHT22;1119;48.288;8.726;2022-12-07T19:58:57;3.00;99.90
2226;DHT22;1119;48.288;8.726;2022-12-07T20:01:25;3.00;99.90
2226;DHT22;1119;48.288;8.726;2022-12-07T20:03:52;3.00;99.90
2226;DHT22;1119;48.288;8.726;2022-12-07T20:06:20;3.00;99.90
2226;DHT22;1119;48.288;8.726;2022-12-07T20:08:49;3.10;99.90
2226;DHT22;1119;48.288;8.726;2022-12-07T20:11:18;3.00;99.90
2226;DHT22;1119;48.288;8.726;2022-12-07T20:14:05;3.00;99.90
2226;DHT22;1119;48.288;8.726;2022-12-07T20:16:34;3.00;99.90
2226;DHT22;1119;48.288;8.726;2022-12-07T20:19:02;3.10;99.90
2226;DHT22;1119;48.288;8.726;2022-12-07T20:21:29;3.10;99.90
2226;DHT22;1119;48.288;8.726;2022-12-07T20:24:00;3.00;99.90
2226;DHT22;1119;48.288;8.726;2022-12-07T20:26:28;3.00;99.90
2226;DHT22;1119;48.288;8.726;2022-12-07T20:28:56;3.00;99.90
2226;DHT22;1119;48.288;8.726;2022-12-07T20:31:23;3.00;99.90
2226;DHT22;1119;48.288;8.726;2022-12-07T20:33:51;3.00;99.90
2226;DHT22;1119;48.288;8.726;2022-12-07T20:36:18;2.90;99.90
2226;DHT22;1119;48.288;8.726;2022-12-07T20:38:46;2.90;99.90
2226;DHT22;1119;48.288;8.726;2022-12-07T20:41:14;2.80;99.90
2226;DHT22;1119;48.288;8.726;2022-12-07T20:44:00;2.80;99.90
2226;DHT22;1119;48.288;8.726;2022-12-07T20:46:28;2.70;99.90
2226;DHT22;1119;48.288;8.726;2022-12-07T20:48:57;2.60;99.90
2226;DHT22;1119;48.288;8.726;2022-12-07T20:51:26;2.50;99.90
2226;DHT22;1119;48.288;8.726;2022-12-07T20:53:54;2.50;99.90
2226;DHT22;1119;48.288;8.726;2022-12-07T20:56:25;2.60;99.90
2226;DHT22;1119;48.288;8.726;2022-12-07T20:58:55;2.50;99.90
2226;DHT22;1119;48.288;8.726;2022-12-07T21:01:23;2.60;99.90
2226;DHT22;1119;48.288;8.726;2022-12-07T21:03:53;2.60;99.90
2226;DHT22;1119;48.288;8.726;2022-12-07T21:06:20;2.60;99.90
2226;DHT22;1119;48.288;8.726;2022-12-07T21:08:49;2.50;99.90
2226;DHT22;1119;48.288;8.726;2022-12-07T21:11:18;2.50;99.90
2226;DHT22;1119;48.288;8.726;2022-12-07T21:13:48;2.50;99.90
2226;DHT22;1119;48.288;8.726;2022-12-07T21:16:17;2.60;99.90
2226;DHT22;1119;48.288;8.726;2022-12-07T21:18:47;2.60;99.90
2226;DHT22;1119;48.288;8.726;2022-12-07T21:21:16;2.60;99.90
2226;DHT22;1119;48.288;8.726;2022-12-07T21:23:45;2.50;99.90
2226;DHT22;1119;48.288;8.726;2022-12-07T21:26:14;2.40;99.90
2226;DHT22;1119;48.288;8.726;2022-12-07T21:28:44;2.30;99.90
2226;DHT22;1119;48.288;8.726;2022-12-07T21:31:13;2.20;99.90
2226;DHT22;1119;48.288;8.726;2022-12-07T21:33:41;2.10;99.90
2226;DHT22;1119;48.288;8.726;2022-12-07T21:36:10;2.00;99.90
2226;DHT22;1119;48.288;8.726;2022-12-07T21:38:39;2.00;99.90
2226;DHT22;1119;48.288;8.726;2022-12-07T21:41:10;2.00;99.90
2226;DHT22;1119;48.288;8.726;2022-12-07T21:43:39;2.00;99.90
2226;DHT22;1119;48.288;8.726;2022-12-07T21:46:06;2.00;99.90
2226;DHT22;1119;48.288;8.726;2022-12-07T21:48:35;1.90;99.90
2226;DHT22;1119;48.288;8.726;2022-12-07T21:51:04;1.80;99.90
2226;DHT22;1119;48.288;8.726;2022-12-07T21:53:32;1.80;99.90
2226;DHT22;1119;48.288;8.726;2022-12-07T21:55:59;1.70;99.90
2226;DHT22;1119;48.288;8.726;2022-12-07T21:58:28;1.70;99.90
2226;DHT22;1119;48.288;8.726;2022-12-07T22:00:56;1.60;99.90
2226;DHT22;1119;48.288;8.726;2022-12-07T22:03:24;1.60;99.90
2226;DHT22;1119;48.288;8.726;2022-12-07T22:05:58;1.60;99.90
2226;DHT22;1119;48.288;8.726;2022-12-07T22:08:26;1.50;99.90
2226;DHT22;1119;48.288;8.726;2022-12-07T22:10:53;1.50;99.90
2226;DHT22;1119;48.288;8.726;2022-12-07T22:13:26;1.50;99.90
2226;DHT22;1119;48.288;8.726;2022-12-07T22:16:14;1.40;99.90
2226;DHT22;1119;48.288;8.726;2022-12-07T22:18:40;1.40;99.90
2226;DHT22;1119;48.288;8.726;2022-12-07T22:21:09;1.40;99.90
2226;DHT22;1119;48.288;8.726;2022-12-07T22:23:36;1.40;99.90
2226;DHT22;1119;48.288;8.726;2022-12-07T22:26:04;1.30;99.90
2226;DHT22;1119;48.288;8.726;2022-12-07T22:28:32;1.30;99.90
2226;DHT22;1119;48.288;8.726;2022-12-07T22:31:03;1.30;99.90
2226;DHT22;1119;48.288;8.726;2022-12-07T22:33:30;1.30;99.90
2226;DHT22;1119;48.288;8.726;2022-12-07T22:35:58;1.30;99.90
2226;DHT22;1119;48.288;8.726;2022-12-07T22:38:29;1.30;99.90
2226;DHT22;1119;48.288;8.726;2022-12-07T22:40:58;1.20;99.90
2226;DHT22;1119;48.288;8.726;2022-12-07T22:43:26;1.20;99.90
2226;DHT22;1119;48.288;8.726;2022-12-07T22:45:54;1.20;99.90
2226;DHT22;1119;48.288;8.726;2022-12-07T22:48:26;1.20;99.90
2226;DHT22;1119;48.288;8.726;2022-12-07T22:50:54;1.30;99.90
2226;DHT22;1119;48.288;8.726;2022-12-07T22:53:22;1.20;99.90
2226;DHT22;1119;48.288;8.726;2022-12-07T22:55:52;1.20;99.90
2226;DHT22;1119;48.288;8.726;2022-12-07T22:58:20;1.20;99.90
2226;DHT22;1119;48.288;8.726;2022-12-07T23:00:54;1.20;99.90
2226;DHT22;1119;48.288;8.726;2022-12-07T23:03:26;1.20;99.90
2226;DHT22;1119;48.288;8.726;2022-12-07T23:05:56;1.20;99.90
2226;DHT22;1119;48.288;8.726;2022-12-07T23:08:24;1.30;99.90
2226;DHT22;1119;48.288;8.726;2022-12-07T23:10:54;1.30;99.90
2226;DHT22;1119;48.288;8.726;2022-12-07T23:13:24;1.30;99.90
2226;DHT22;1119;48.288;8.726;2022-12-07T23:16:07;1.30;99.90
2226;DHT22;1119;48.288;8.726;2022-12-07T23:18:37;1.30;99.90
2226;DHT22;1119;48.288;8.726;2022-12-07T23:21:06;1.30;99.90
2226;DHT22;1119;48.288;8.726;2022-12-07T23:23:35;1.40;99.90
2226;DHT22;1119;48.288;8.726;2022-12-07T23:26:06;1.40;99.90
2226;DHT22;1119;48.288;8.726;2022-12-07T23:28:36;1.40;99.90
2226;DHT22;1119;48.288;8.726;2022-12-07T23:31:06;1.40;99.90
2226;DHT22;1119;48.288;8.726;2022-12-07T23:33:34;1.40;99.90
2226;DHT22;1119;48.288;8.726;2022-12-07T23:36:07;1.40;99.90
2226;DHT22;1119;48.288;8.726;2022-12-07T23:38:35;1.40;99.90
2226;DHT22;1119;48.288;8.726;2022-12-07T23:41:09;1.40;99.90
2226;DHT22;1119;48.288;8.726;2022-12-07T23:43:38;1.50;99.90
2226;DHT22;1119;48.288;8.726;2022-12-07T23:46:08;1.50;99.90
2226;DHT22;1119;48.288;8.726;2022-12-07T23:48:38;1.50;99.90
2226;DHT22;1119;48.288;8.726;2022-12-07T23:51:06;1.50;99.90
2226;DHT22;1119;48.288;8.726;2022-12-07T23:53:35;1.40;99.90
2226;DHT22;1119;48.288;8.726;2022-12-07T23:56:09;1.40;99.90
2226;DHT22;1119;48.288;8.726;2022-12-07T23:58:37;1.30;99.90
